Sonic Adventure (DX): Time Rankings

Records: Times | Rings | Scores | Races | Bosses | Freestyle
Leaders: Times | Rings | Scores | Races | Bosses | Freestyle | Overall
Rank Player Percent Points Date
1 Gamepro011 99.1% 49 06-25-19
2 Sonicspeedruner 98.0% 112 06-25-19
3 Niczur 95.3% 267 06-25-19
4 Dashjump 94.2% 331 06-25-19
5 Jawzun 94.1% 335 06-25-19
6 DarkPolarNight 93.3% 384 06-25-19
7 drminus 91.0% 515 06-25-19
8 F-Man 91.0% 517 06-25-19
9 THC98 90.5% 546 06-25-19
10 ike6252 88.5% 659 06-25-19
11 Avento128bits 88.2% 676 06-25-19
12 francisco 87.9% 694 06-25-19
13 DarkspinesSonic 87.4% 725 06-25-19
13 ethmar 87.4% 725 06-25-19
15 Marth 87.3% 729 06-25-19
16 frankoredstrato 85.9% 810 06-25-19
17 chainchump 84.3% 903 06-25-19
18 TheRealShadnic 84.2% 906 06-25-19
19 Paragod 83.0% 978 06-25-19
20 HyperSonic7701 82.9% 984 06-25-19
21 Calfd 82.5% 1006 06-25-19
22 Coolfansonic 79.8% 1161 06-25-19
23 InferSaime 79.6% 1173 06-25-19
24 Stefan 78.2% 1249 06-25-19
25 xXMegaManXx 78.2% 1254 06-25-19
26 PfoSonic 77.7% 1281 06-25-19
27 bertin 75.9% 1384 06-25-19
28 yoshifan 75.5% 1407 06-25-19
29 Dave Cramer 73.9% 1501 06-25-19
30 RPGnutter 73.6% 1516 06-25-19
31 sonicam 72.0% 1606 06-25-19
32 Cybrax 71.7% 1627 06-25-19
33 Nim 69.5% 1755 06-25-19
34 Ring Rush 69.1% 1778 06-25-19
35 mike89 68.3% 1824 06-25-19
36 NintenDan 68.0% 1836 06-25-19
37 chaos shadow 67.9% 1846 06-25-19
38 a_moustache 67.0% 1895 06-25-19
39 Dekuboy 65.4% 1987 06-25-19
40 SkyLights 64.5% 2038 06-25-19
41 Combo 63.1% 2120 06-25-19
42 SADXTryHard 60.9% 2247 06-25-19
43 P1 Pause 60.1% 2293 06-25-19
44 WeegeeZV 59.2% 2344 06-25-19
45 Groudon199 58.3% 2399 06-25-19
46 AxlThunder 58.0% 2413 06-25-19
47 Game_Complete 58.0% 2416 06-25-19
48 Shadow Jacky 57.5% 2441 06-25-19
49 VMU Player Banned 56.9% 2480 06-25-19
50 Thorn 56.3% 2511 06-25-19
51 SB737 55.2% 2576 06-25-19
52 The Knuckles Chao 55.0% 2585 06-25-19
53 Parax 54.8% 2597 06-25-19
54 Chao_Fan 54.8% 2600 06-25-19
55 SadisticMystic 54.8% 2601 06-25-19
56 Mastakirby 54.5% 2618 06-25-19
57 KinkyCadence 54.1% 2641 06-25-19
58 LittleBigness 54.0% 2646 06-25-19
58 mauserman 54.0% 2646 06-25-19
60 OmegaDJ 53.6% 2667 06-25-19
61 Psyknux 53.6% 2670 06-25-19
62 Auriman1 53.0% 2700 06-25-19
63 magnum12 52.9% 2707 06-25-19
64 Turbos 52.5% 2731 06-25-19
65 GerbilSoft 51.8% 2769 06-25-19
66 GreatStar 51.6% 2781 06-25-19
67 Webber3000 51.1% 2809 06-25-19
68 Hipertails12 50.9% 2825 06-25-19
69 N 50.7% 2836 06-25-19
70 James_Bertolli 48.1% 2984 06-25-19
71 Cream147 47.7% 3008 06-25-19
72 welldooder64 47.1% 3041 06-25-19
73 Skylace 47.1% 3042 06-25-19
74 Omega Rafael Santos 46.9% 3051 06-25-19
75 Quartz 46.6% 3073 06-25-19
76 Diamond 46.5% 3075 06-25-19
77 Psymar 46.3% 3089 06-25-19
78 SonicWinDX 46.1% 3099 06-25-19
79 teamblackarms 45.3% 3145 06-25-19
80 Cyan Ryan 44.7% 3182 06-25-19
81 Andrea Ritsu 44.6% 3187 06-25-19
82 buddychaos0415 44.5% 3194 06-25-19
83 SilverSonic 44.1% 3214 06-25-19
84 paulie9990 43.6% 3243 06-25-19
85 SilvertheAlmighty 43.2% 3264 06-25-19
86 itsPersonnal 43.2% 3268 06-25-19
87 metanightmare22 42.4% 3310 06-25-19
88 CoEmpathy 40.9% 3399 06-25-19
89 lordmetalsonic 40.3% 3433 06-25-19
90 Arch 39.9% 3456 06-25-19
91 Termon 39.3% 3488 06-25-19
92 videogamemaster777 38.9% 3511 06-25-19
93 supersonicfan 38.6% 3530 06-25-19
94 Drakodan 38.5% 3534 06-25-19
95 Kanimayo_Jp 38.2% 3552 06-25-19
96 LilZero 37.7% 3581 06-25-19
97 FuzZerd 37.5% 3593 06-25-19
98 supersonic465 37.5% 3596 06-25-19
99 JamminX42 36.9% 3628 06-25-19
100 eggFL 36.8% 3632 06-25-19
101 Don 36.6% 3643 06-25-19
102 BigAL49 36.6% 3646 06-25-19
103 danieldude 36.1% 3674 06-25-19
104 Fr3nZy 35.3% 3719 06-25-19
105 Siavash Tazari 35.2% 3725 06-25-19
106 Cod4Scopes 34.6% 3760 06-25-19
107 f0rever_zer0 34.3% 3778 06-25-19
107 Zurggriff 34.3% 3778 06-25-19
109 Therio 33.6% 3817 06-25-19
110 Austinf 33.5% 3826 06-25-19
111 LinksDarkArrows 33.2% 3839 06-25-19
112 elecmouse101 32.5% 3884 06-25-19
113 Staf 32.1% 3903 06-25-19
114 ModifiedMonkee 32.0% 3910 06-25-19
114 R3FR4G 32.0% 3910 06-25-19
116 MiStEr_ShAoLiN 31.8% 3923 06-25-19
117 BrokenArthritis 31.7% 3925 06-25-19
118 Twilisailor 31.5% 3940 06-25-19
119 videogamer1014 31.4% 3947 06-25-19
120 Xia 30.8% 3979 06-25-19
121 AC-Tygo 30.5% 3997 06-25-19
122 welshmoose05 30.4% 4003 06-25-19
123 OddCook 29.7% 4044 06-25-19
124 Mcshuggets 29.4% 4060 06-25-19
125 The Great Lord Mick 29.4% 4061 06-25-19
126 Maxinfamily 29.1% 4077 06-25-19
127 Aitamen 29.0% 4084 06-25-19
128 joecoolgames 28.8% 4095 06-25-19
129 Matt_TY 28.4% 4115 06-25-19
130 SuperBlitzCraig 28.3% 4121 06-25-19
131 Irregular Zero 28.2% 4128 06-25-19
132 dabestgamer 28.2% 4129 06-25-19
133 SuperSonic101 27.2% 4186 06-25-19
134 Shadowthegreat 26.8% 4207 06-25-19
135 superjupi 26.8% 4209 06-25-19
136 Hunters13 26.7% 4218 06-25-19
137 thewaytodawnnn 26.5% 4227 06-25-19
138 Rolken 26.4% 4230 06-25-19
139 SaviourDC 26.0% 4253 06-25-19
140 iarebored 26.0% 4257 06-25-19
141 sonamyfan666 25.9% 4260 06-25-19
142 koinu93 25.8% 4267 06-25-19
143 Spinballwizard 25.6% 4278 06-25-19
144 SonicKnuckles 25.6% 4279 06-25-19
145 EngiNerd 24.5% 4342 06-25-19
146 adf 24.5% 4343 06-25-19
147 Megaman EXE565 23.6% 4394 06-25-19
148 The T 23.5% 4402 06-25-19
149 Sonic Singularity 22.9% 4435 06-25-19
150 Platformer 22.8% 4440 06-25-19
151 Pokemonmaster888 22.6% 4451 06-25-19
152 SeaWolf 22.5% 4455 06-25-19
153 Swift Hobo 22.2% 4472 06-25-19
154 timpkmn89 22.2% 4474 06-25-19
155 Rickyman48 21.6% 4511 06-25-19
156 Sondow 21.4% 4521 06-25-19
157 FoxBoy 20.9% 4549 06-25-19
158 Sm4sh 20.8% 4555 06-25-19
159 KitsuneYamaro 20.7% 4558 06-25-19
160 TFEC Headshot 20.5% 4570 06-25-19
161 Jerzia 20.3% 4584 06-25-19
162 Kogen Player Banned 19.9% 4609 06-25-19
163 Starlight Sable 19.8% 4614 06-25-19
164 IsisDazs 19.2% 4649 06-25-19
165 iden1 19.0% 4660 06-25-19
166 Powerjohn25 18.9% 4662 06-25-19
167 HyperSonic64 18.8% 4670 06-25-19
168 crazy1993 18.6% 4680 06-25-19
169 andres430 18.3% 4699 06-25-19
170 Swinkly 17.3% 4758 06-25-19
171 SonicU260 17.3% 4759 06-25-19
172 sonicd5 17.0% 4774 06-25-19
173 SonicAD 16.9% 4779 06-25-19
174 MPit08 16.9% 4780 06-25-19
175 iSonicKid2K 16.2% 4817 06-25-19
176 dShadow 16.1% 4827 06-25-19
177 Miles9999 15.8% 4843 06-25-19
178 Cutiefox 15.7% 4849 06-25-19
179 Chawkk 15.6% 4852 06-25-19
180 Crispian 15.4% 4863 06-25-19
181 Monkeh 15.4% 4866 06-25-19
182 DaDude 15.0% 4890 06-25-19
183 Drflash55 14.7% 4909 06-25-19
184 Badlex727 14.6% 4911 06-25-19
185 Bass 14.3% 4928 06-25-19
186 Yish 14.2% 4935 06-25-19
187 Cruizer 14.1% 4942 06-25-19
187 neaolas 14.1% 4942 06-25-19
189 Destroyer121121 14.0% 4945 06-25-19
190 zapp 14.0% 4946 06-25-19
191 UninspiredUsername 14.0% 4948 06-25-19
192 superiorsonic 13.7% 4961 06-25-19
193 gamefreak1292 13.6% 4969 06-25-19
194 Sora_yx 13.1% 4997 06-25-19
195 Cooljay 13.1% 5001 06-25-19
196 Chaos_Overlord 12.5% 5032 06-25-19
197 Valfore 12.2% 5051 06-25-19
198 Dage4Aquatic 11.8% 5071 06-25-19
199 GarnetPrincess 11.8% 5074 06-25-19
200 ShinigamiMachine 11.6% 5084 06-25-19
201 soniccoloursunleashed 11.6% 5086 06-25-19
202 Sonicsuperstar1 11.1% 5111 06-25-19
203 FocusSight64 10.7% 5135 06-25-19
204 Werey 10.7% 5137 06-25-19
205 booo95 10.6% 5141 06-25-19
206 SirTobbii 10.5% 5150 06-25-19
207 Mo Player Banned 10.4% 5152 06-25-19
208 Jua Rever 10.3% 5157 06-25-19
209 sonicspeed 10.2% 5164 06-25-19
210 Venick409 9.6% 5202 06-25-19
211 nman36 9.5% 5208 06-25-19
212 Sithwarrior26 9.4% 5209 06-25-19
213 ingx24 9.0% 5235 06-25-19
214 CyberShadow 8.9% 5242 06-25-19
215 dekki1234 8.5% 5262 06-25-19
216 Fozer 8.4% 5268 06-25-19
217 Egor305 8.3% 5276 06-25-19
218 Regano1000 8.2% 5281 06-25-19
219 Colomb_30 8.2% 5282 06-25-19
220 1stKirbyever 8.0% 5294 06-25-19
221 TimTH 7.7% 5309 06-25-19
222 nuckrieg 7.7% 5310 06-25-19
223 Brian_pso 7.6% 5313 06-25-19
224 douglas 7.3% 5331 06-25-19
225 TakaRikka 7.2% 5335 06-25-19
226 Th4tN1nj4Turtl3 7.2% 5336 06-25-19
227 Zip 7.1% 5345 06-25-19
228 Mariosonic15 6.8% 5358 06-25-19
229 wheatrich 6.8% 5362 06-25-19
230 MStitomix 6.6% 5371 06-25-19
231 HermitHelmet 6.5% 5378 06-25-19
231 ieatatsonic 6.5% 5378 06-25-19
233 niscool 6.4% 5381 06-25-19
234 Cort_pso 6.2% 5393 06-25-19
235 Got4n 6.2% 5397 06-25-19
236 Triseena 6.0% 5407 06-25-19
237 Jose_15 5.9% 5413 06-25-19
238 SuperSonicfan9595 5.7% 5425 06-25-19
239 Artie 5.7% 5426 06-25-19
239 BlankTH 5.7% 5426 06-25-19
241 Ace747 5.4% 5442 06-25-19
241 HHNNBBHHN 5.4% 5442 06-25-19
243 Richied 5.3% 5449 06-25-19
244 Paixii 5.2% 5454 06-25-19
245 Aiko 5.1% 5460 06-25-19
246 BallzeH 4.8% 5474 06-25-19
247 slade23 4.8% 5475 06-25-19
248 FSSRandomvids 4.8% 5476 06-25-19
249 PsyBorg 4.8% 5478 06-25-19
250 ArcticDragon 4.7% 5479 06-25-19
251 Mankster101 4.7% 5480 06-25-19
252 Jamixesa 4.7% 5482 06-25-19
253 BecauseWarAnvil 4.6% 5485 06-25-19
254 Nickson98 4.5% 5492 06-25-19
255 Crydio 4.5% 5494 06-25-19
256 TheUltraBlur 4.4% 5501 06-25-19
257 MarewBFN 4.2% 5513 06-25-19
257 stanski 4.2% 5513 06-25-19
259 tal39h 4.0% 5520 06-25-19
260 Blue Infamy 3.9% 5529 06-25-19
260 knuckles_sonic8 3.9% 5529 06-25-19
262 ALundstrom10 3.8% 5533 06-25-19
262 p0ker 3.8% 5533 06-25-19
264 ErrortheCucco 3.7% 5540 06-25-19
265 Rikum22 3.6% 5543 06-25-19
266 sonic1001 3.5% 5551 06-25-19
267 TheChaosEmeraIds 3.4% 5557 06-25-19
268 syco1098 3.4% 5558 06-25-19
269 AJSIV 3.3% 5560 06-25-19
270 Sonic the Hedgehod16 3.3% 5563 06-25-19
271 ASINISTERTACO 3.2% 5570 06-25-19
272 sonicfan9 3.1% 5575 06-25-19
273 themachoman202 2.9% 5586 06-25-19
274 MK 2.8% 5591 06-25-19
275 Fivavoa 2.7% 5595 06-25-19
276 Mr. Jones 2.7% 5597 06-25-19
277 BlackArmsShadow 2.7% 5598 06-25-19
278 djmat 2.7% 5599 06-25-19
279 arcfx1985 2.6% 5600 06-25-19
280 ptorflaxendrosis 2.6% 5604 06-25-19
280 Sonique Hedgehog 2.6% 5604 06-25-19
282 FlandreScarlet9999vr 2.5% 5607 06-25-19
283 Zeldocto 2.5% 5610 06-25-19
284 BeeAwwb 2.4% 5615 06-25-19
285 KaM Mark MaK 2.3% 5617 06-25-19
286 ShadouZaHejjihoggu 2.3% 5621 06-25-19
287 darkstarblaze 2.2% 5627 06-25-19
288 Sonic The Star 2.1% 5629 06-25-19
289 darkersupershadic 2.1% 5630 06-25-19
290 SpiritDragon1995 2.1% 5631 06-25-19
291 Sarger001 2.0% 5636 06-25-19
292 sonic29887 2.0% 5637 06-25-19
293 Grady219 2.0% 5639 06-25-19
294 Jawaah 1.9% 5643 06-25-19
294 shadowblast63 Player Banned 1.9% 5643 06-25-19
296 Antek 1.8% 5647 06-25-19
297 Klaus 1.8% 5649 06-25-19
298 BioShadow 1.7% 5655 06-25-19
299 Shanekilz 1.4% 5672 06-25-19
299 SkyBon 1.4% 5672 06-25-19
301 isaihtb11 1.3% 5676 06-25-19
302 OhNoes! 1.3% 5677 06-25-19
303 zaktu40 1.3% 5678 06-25-19
304 ArthurVGCP 1.3% 5680 06-25-19
305 gaara1234 1.2% 5682 06-25-19
306 S-MS32X-S 1.2% 5683 06-25-19
307 MastaToken 1.1% 5689 06-25-19
308 Mister_Slick 1.0% 5693 06-25-19
309 Sonic06Fan 1.0% 5697 06-25-19
310 Rush Hero 0.9% 5698 06-25-19
311 ChaosNexuss 0.9% 5699 06-25-19
312 oTaiIilLsS 0.8% 5704 06-25-19
312 SonicMega167 0.8% 5704 06-25-19
314 gamed00d 0.8% 5707 06-25-19
314 SilverK 0.8% 5707 06-25-19
316 Burningskull123 0.5% 5723 06-25-19
317 Heroes_Hater 0.5% 5725 06-25-19
318 Sonicontherun 0.3% 5734 06-25-19
319 antiwwe 0.2% 5740 06-25-19
320 Iwannabelink 0.2% 5742 06-25-19
321 Genuine Hedgehog 0.1% 5744 06-25-19
322 dragondragon18 0.1% 5748 06-25-19
323 SonicK100 0.1% 5749 06-25-19
324 Tyrouble 0.0% 5754 06-25-19
325 LancexExWx 0.0% 5755 06-25-19
325 neji_hyuuga 0.0% 5755 06-25-19
325 Over 0.0% 5755 06-25-19
325 sdj6707 Player Banned 0.0% 5755 06-25-19
325 Tran Sonic Fan Player Banned 0.0% 5755 06-25-19

This page is using the New Data Table System. [FUTURE]

Game ID: 3 | Category ID: 1
Hits: 9,385 | Hits This Month: 53 | DB Calls: 24 | Mem Usage: 5.88 MB | Time: 0.14s | Printable

The Sonic Center v3.9
Copyright 2003-2011 by The Sonic Center Team.